Time;durP1;ratioP1;P1;durP2;ratioP2;P2;SDS_P1;SDS_P2;PMS_P1;PMS_P2;Temp;Humidity;BMP_temperature;BMP_pressure;BME280_temperature;BME280_humidity;BME280_pressure;Samples;Min_cycle;Max_cycle;Signal;HPM_P1;HPM_P2
2023/03/17 00:02:08;;;;;;;;;;;;;;;1.84;100.00;96378.25;5064678;28;19919;-71
2023/03/17 00:04:33;;;;;;;;;;;;;;;1.78;100.00;96384.09;5085429;28;19977;-71
2023/03/17 00:06:59;;;;;;;;;;;;;;;1.74;100.00;96389.34;5068631;28;19969;-71
2023/03/17 00:09:24;;;;;;;;;;;;;;;1.68;100.00;96382.53;5084588;28;19920;-71
2023/03/17 00:11:50;;;;;;;;;;;;;;;1.70;100.00;96377.59;5089882;28;19923;-71
2023/03/17 00:14:15;;;;;;;;;;;;;;;1.76;100.00;96383.63;5079690;28;19920;-71
2023/03/17 00:16:42;;;;;;;;;;;;;;;1.71;100.00;96381.88;5086441;28;19923;-72
2023/03/17 00:19:25;;;;;;;;;;;;;;;1.74;100.00;96377.75;5048146;28;19916;-73
2023/03/17 00:21:50;;;;;;;;;;;;;;;1.71;100.00;96373.78;5071171;28;20381;-72
2023/03/17 00:24:16;;;;;;;;;;;;;;;1.62;100.00;96376.50;5082391;28;20026;-73
2023/03/17 00:26:42;;;;;;;;;;;;;;;1.62;100.00;96383.78;5088151;28;20364;-71
2023/03/17 00:29:07;;;;;;;;;;;;;;;1.53;100.00;96384.56;5079831;28;19916;-71
2023/03/17 00:31:33;;;;;;;;;;;;;;;1.26;100.00;96385.63;5066288;28;19916;-72
2023/03/17 00:33:59;;;;;;;;;;;;;;;1.10;100.00;96381.78;5065990;28;20218;-73
2023/03/17 00:36:29;;;;;;;;;;;;;;;0.84;100.00;96379.78;5071812;28;20247;-72
2023/03/17 00:38:56;;;;;;;;;;;;;;;0.86;100.00;96376.78;5065471;28;19962;-72
2023/03/17 00:41:22;;;;;;;;;;;;;;;0.96;100.00;96381.91;5079748;28;19920;-73
2023/03/17 00:43:48;;;;;;;;;;;;;;;1.06;100.00;96376.22;5083774;28;20009;-72
2023/03/17 00:46:17;;;;;;;;;;;;;;;1.13;100.00;96376.56;5078553;28;20368;-72
2023/03/17 00:48:43;;;;;;;;;;;;;;;1.22;100.00;96373.88;5083251;28;19928;-71
2023/03/17 00:51:09;;;;;;;;;;;;;;;1.29;100.00;96371.50;5082002;28;20376;-72
2023/03/17 00:53:35;;;;;;;;;;;;;;;1.31;100.00;96363.09;5088374;28;19923;-72
2023/03/17 00:56:00;;;;;;;;;;;;;;;1.37;100.00;96359.16;5074440;28;19920;-72
2023/03/17 00:58:27;;;;;;;;;;;;;;;1.27;100.00;96360.22;5081316;28;20020;-72
2023/03/17 01:00:53;;;;;;;;;;;;;;;1.11;100.00;96359.88;5066980;28;19916;-73
2023/03/17 01:03:20;;;;;;;;;;;;;;;1.12;100.00;96353.38;5078672;28;19961;-73
2023/03/17 01:05:45;;;;;;;;;;;;;;;1.13;100.00;96346.06;5082889;28;19924;-72
2023/03/17 01:08:11;;;;;;;;;;;;;;;1.16;100.00;96344.66;5061794;28;20014;-72
2023/03/17 01:10:36;;;;;;;;;;;;;;;1.19;100.00;96357.50;5084821;28;20398;-71
2023/03/17 01:13:03;;;;;;;;;;;;;;;1.23;100.00;96351.19;5083150;28;19920;-75
2023/03/17 01:15:30;;;;;;;;;;;;;;;1.36;100.00;96354.06;5082421;28;19916;-71
2023/03/17 01:17:56;;;;;;;;;;;;;;;1.22;100.00;96349.59;5090119;28;19920;-71
2023/03/17 01:20:26;;;;;;;;;;;;;;;1.23;100.00;96343.09;5078246;28;19927;-72
2023/03/17 01:22:52;;;;;;;;;;;;;;;1.12;100.00;96355.28;5084849;28;20369;-71
2023/03/17 01:25:17;;;;;;;;;;;;;;;1.05;100.00;96341.47;5078899;28;19920;-71
2023/03/17 01:27:44;;;;;;;;;;;;;;;0.88;100.00;96329.53;5084121;28;20530;-72
2023/03/17 01:30:30;;;;;;;;;;;;;;;0.70;100.00;96335.94;5079738;28;19920;-74
2023/03/17 01:32:56;;;;;;;;;;;;;;;0.61;100.00;96322.44;5084153;28;20011;-72
2023/03/17 01:35:23;;;;;;;;;;;;;;;0.66;100.00;96314.22;5074812;28;20667;-74
2023/03/17 01:37:49;;;;;;;;;;;;;;;0.17;100.00;96299.91;5081168;28;20018;-73
2023/03/17 01:40:21;;;;;;;;;;;;;;;-0.03;100.00;96295.84;5077809;28;19923;-72
2023/03/17 01:42:53;;;;;;;;;;;;;;;-0.17;100.00;96295.13;5080622;28;19919;-72
2023/03/17 01:45:38;;;;;;;;;;;;;;;-0.23;100.00;96300.63;5116989;28;19943;-75
2023/03/17 01:48:03;;;;;;;;;;;;;;;-0.22;100.00;96299.53;5090634;28;20284;-75
2023/03/17 01:50:29;;;;;;;;;;;;;;;-0.20;100.00;96296.50;5075602;28;19919;-72
2023/03/17 01:52:54;;;;;;;;;;;;;;;0.03;100.00;96301.88;5102869;28;19916;-73
2023/03/17 01:55:20;;;;;;;;;;;;;;;0.22;100.00;96298.97;5083712;28;19915;-70
2023/03/17 01:57:49;;;;;;;;;;;;;;;0.35;100.00;96308.88;5065146;28;19931;-72
2023/03/17 02:00:20;;;;;;;;;;;;;;;0.51;100.00;96311.94;5078962;28;19929;-73
2023/03/17 02:02:47;;;;;;;;;;;;;;;0.54;100.00;96322.91;5082860;28;19955;-71
2023/03/17 02:05:16;;;;;;;;;;;;;;;0.76;100.00;96319.34;5042412;28;19923;-72
2023/03/17 02:07:42;;;;;;;;;;;;;;;0.95;100.00;96319.09;5081294;28;19947;-71
2023/03/17 02:10:08;;;;;;;;;;;;;;;1.00;100.00;96314.66;5077257;28;19964;-73
2023/03/17 02:12:34;;;;;;;;;;;;;;;0.94;100.00;96316.69;5083249;28;19981;-72
2023/03/17 02:15:00;;;;;;;;;;;;;;;0.55;100.00;96304.81;5081692;28;20022;-72
2023/03/17 02:17:26;;;;;;;;;;;;;;;0.41;100.00;96307.63;5078423;28;20002;-72
2023/03/17 02:19:51;;;;;;;;;;;;;;;0.32;100.00;96301.41;5062712;28;19916;-72
2023/03/17 02:22:17;;;;;;;;;;;;;;;0.14;100.00;96309.38;5077336;28;19920;-72
2023/03/17 02:24:45;;;;;;;;;;;;;;;0.07;100.00;96303.63;5085637;28;20376;-71
2023/03/17 02:27:16;;;;;;;;;;;;;;;-0.06;100.00;96299.91;5076916;28;19924;-71
2023/03/17 02:29:45;;;;;;;;;;;;;;;-0.09;100.00;96302.44;5064706;28;20019;-71
2023/03/17 02:32:11;;;;;;;;;;;;;;;-0.12;100.00;96295.00;5077539;28;19920;-71
2023/03/17 02:34:37;;;;;;;;;;;;;;;-0.08;100.00;96287.88;5082432;28;20331;-72
2023/03/17 02:37:02;;;;;;;;;;;;;;;0.03;100.00;96275.75;5080145;28;19920;-75
2023/03/17 02:39:27;;;;;;;;;;;;;;;0.01;100.00;96277.97;5079234;28;19935;-73
2023/03/17 02:41:52;;;;;;;;;;;;;;;-0.01;100.00;96293.63;5044161;28;20296;-72
2023/03/17 02:44:18;;;;;;;;;;;;;;;-0.03;100.00;96295.84;5055812;28;20003;-72
2023/03/17 02:46:43;;;;;;;;;;;;;;;-0.03;100.00;96317.38;5043621;28;19920;-72
2023/03/17 02:49:09;;;;;;;;;;;;;;;0.19;100.00;96320.03;5076949;28;19920;-73
2023/03/17 02:51:35;;;;;;;;;;;;;;;0.56;100.00;96314.53;5081997;28;19923;-73
2023/03/17 02:54:00;;;;;;;;;;;;;;;0.69;100.00;96310.91;5086190;28;19923;-73
2023/03/17 02:56:26;;;;;;;;;;;;;;;0.80;100.00;96300.63;5076085;28;19923;-71
2023/03/17 02:58:51;;;;;;;;;;;;;;;0.73;100.00;96295.69;5082404;28;19916;-73
2023/03/17 03:01:17;;;;;;;;;;;;;;;0.56;100.00;96301.81;5076598;28;20299;-72
2023/03/17 03:03:42;;;;;;;;;;;;;;;0.43;100.00;96305.41;5063645;28;19920;-73
2023/03/17 03:06:07;;;;;;;;;;;;;;;0.47;100.00;96302.88;5077641;28;19924;-73
2023/03/17 03:08:33;;;;;;;;;;;;;;;0.52;100.00;96305.44;5082331;28;20003;-73
2023/03/17 03:10:59;;;;;;;;;;;;;;;0.49;100.00;96301.47;5081710;28;19916;-73
2023/03/17 03:13:25;;;;;;;;;;;;;;;0.29;100.00;96296.63;5077322;28;19969;-73
2023/03/17 03:15:50;;;;;;;;;;;;;;;0.24;100.00;96294.88;5082719;28;19916;-72
2023/03/17 03:18:15;;;;;;;;;;;;;;;0.11;100.00;96307.31;5080624;28;20391;-72
2023/03/17 03:20:42;;;;;;;;;;;;;;;-0.04;100.00;96303.13;5086193;28;19977;-71
2023/03/17 03:23:07;;;;;;;;;;;;;;;-0.14;100.00;96299.91;5080666;28;19923;-71
2023/03/17 03:25:34;;;;;;;;;;;;;;;-0.30;100.00;96307.53;5066978;28;19920;-71
2023/03/17 03:28:00;;;;;;;;;;;;;;;-0.23;100.00;96307.91;5085641;28;20273;-73
2023/03/17 03:30:25;;;;;;;;;;;;;;;0.02;100.00;96314.56;5081227;28;19923;-70
2023/03/17 03:32:51;;;;;;;;;;;;;;;0.21;100.00;96311.66;5067127;28;20433;-69
2023/03/17 03:35:16;;;;;;;;;;;;;;;0.37;100.00;96310.13;5084673;28;19959;-70
2023/03/17 03:37:42;;;;;;;;;;;;;;;0.51;100.00;96312.75;5080844;28;19920;-70
2023/03/17 03:40:07;;;;;;;;;;;;;;;0.60;100.00;96310.09;5061688;28;19916;-69
2023/03/17 03:42:33;;;;;;;;;;;;;;;0.45;100.00;96321.25;5085857;28;19923;-72
2023/03/17 03:44:58;;;;;;;;;;;;;;;0.55;100.00;96327.16;5085621;28;20400;-72
2023/03/17 03:47:23;;;;;;;;;;;;;;;0.65;100.00;96331.50;5081203;28;20587;-72
2023/03/17 03:49:49;;;;;;;;;;;;;;;0.67;100.00;96328.50;5092208;28;19920;-73
2023/03/17 03:52:14;;;;;;;;;;;;;;;0.62;100.00;96331.34;5082230;28;19970;-72
2023/03/17 03:54:39;;;;;;;;;;;;;;;0.37;100.00;96331.69;5091415;28;19920;-73
2023/03/17 03:57:05;;;;;;;;;;;;;;;0.24;100.00;96332.59;5080815;28;20133;-73
2023/03/17 03:59:30;;;;;;;;;;;;;;;0.36;100.00;96343.59;5084796;28;19923;-72
2023/03/17 04:01:55;;;;;;;;;;;;;;;0.44;100.00;96330.47;5067465;28;20357;-72
2023/03/17 04:04:21;;;;;;;;;;;;;;;0.31;100.00;96340.22;5062189;28;19934;-71
2023/03/17 04:06:47;;;;;;;;;;;;;;;0.22;100.00;96336.66;5082963;28;20580;-71
2023/03/17 04:09:12;;;;;;;;;;;;;;;0.06;100.00;96337.06;5062383;28;19923;-71
2023/03/17 04:11:38;;;;;;;;;;;;;;;-0.06;100.00;96342.22;5086687;28;19923;-73
2023/03/17 04:14:05;;;;;;;;;;;;;;;-0.18;100.00;96348.16;5082120;28;19916;-74
2023/03/17 04:16:31;;;;;;;;;;;;;;;-0.31;100.00;96344.41;5085051;28;19920;-71
2023/03/17 04:18:57;;;;;;;;;;;;;;;-0.46;100.00;96350.16;5084248;28;19916;-70
2023/03/17 04:21:23;;;;;;;;;;;;;;;-0.52;100.00;96351.34;5078715;28;19916;-71
2023/03/17 04:23:48;;;;;;;;;;;;;;;-0.54;100.00;96348.16;5084851;28;19924;-71
2023/03/17 04:26:13;;;;;;;;;;;;;;;-0.56;100.00;96343.09;5079314;28;20393;-72
2023/03/17 04:28:39;;;;;;;;;;;;;;;-0.40;100.00;96346.22;5065062;28;20001;-72
2023/03/17 04:31:05;;;;;;;;;;;;;;;-0.19;100.00;96346.56;5080417;28;19923;-74
2023/03/17 04:33:30;;;;;;;;;;;;;;;-0.07;100.00;96329.88;5085043;28;19941;-72
2023/03/17 04:35:55;;;;;;;;;;;;;;;-0.13;100.00;96331.06;5065530;28;19924;-72
2023/03/17 04:38:21;;;;;;;;;;;;;;;-0.21;100.00;96327.22;5079211;28;19920;-73
2023/03/17 04:40:46;;;;;;;;;;;;;;;-0.55;100.00;96317.78;5098020;28;19923;-72
2023/03/17 04:43:11;;;;;;;;;;;;;;;-0.84;100.00;96318.19;5090884;28;19920;-73
2023/03/17 04:45:37;;;;;;;;;;;;;;;-0.78;100.00;96328.50;5070733;28;20300;-74
2023/03/17 04:48:02;;;;;;;;;;;;;;;-0.61;100.00;96330.56;5083899;28;19972;-74
2023/03/17 04:50:27;;;;;;;;;;;;;;;-0.41;100.00;96339.28;5061971;28;19916;-73
2023/03/17 04:52:53;;;;;;;;;;;;;;;-0.28;100.00;96333.03;5085005;28;19924;-73
2023/03/17 04:55:18;;;;;;;;;;;;;;;-0.06;100.00;96334.94;5050405;28;19916;-73
2023/03/17 04:57:44;;;;;;;;;;;;;;;0.09;100.00;96333.78;5063295;28;19916;-73
2023/03/17 05:00:11;;;;;;;;;;;;;;;0.11;100.00;96330.75;5058114;28;20441;-73
2023/03/17 05:02:37;;;;;;;;;;;;;;;-0.04;100.00;96327.38;5068501;28;19920;-74
2023/03/17 05:05:03;;;;;;;;;;;;;;;-0.25;100.00;96332.44;5068417;28;19979;-74
2023/03/17 05:07:29;;;;;;;;;;;;;;;-0.35;100.00;96331.88;5077786;28;19921;-71
2023/03/17 05:09:55;;;;;;;;;;;;;;;-0.56;100.00;96326.16;5063380;28;19916;-73
2023/03/17 05:12:21;;;;;;;;;;;;;;;-0.65;100.00;96329.59;5058649;28;20400;-73
2023/03/17 05:14:46;;;;;;;;;;;;;;;-0.70;100.00;96331.56;5062572;28;19917;-70
2023/03/17 05:17:12;;;;;;;;;;;;;;;-0.72;100.00;96337.28;5057838;28;20349;-72
2023/03/17 05:19:37;;;;;;;;;;;;;;;-0.72;100.00;96331.91;5046106;28;19917;-73
2023/03/17 05:22:02;;;;;;;;;;;;;;;-0.85;100.00;96330.00;5060616;28;19978;-72
2023/03/17 05:24:27;;;;;;;;;;;;;;;-0.94;100.00;96335.31;5061916;28;19921;-72
2023/03/17 05:26:53;;;;;;;;;;;;;;;-0.93;100.00;96330.75;5064869;28;20045;-72
2023/03/17 05:29:18;;;;;;;;;;;;;;;-0.96;100.00;96338.28;5058449;28;19916;-72
2023/03/17 05:31:43;;;;;;;;;;;;;;;-0.92;100.00;96337.69;5063067;28;19920;-73
2023/03/17 05:34:08;;;;;;;;;;;;;;;-0.90;100.00;96339.00;5057520;28;19942;-71
2023/03/17 05:36:35;;;;;;;;;;;;;;;-0.89;100.00;96343.25;5045812;28;19925;-74
2023/03/17 05:39:00;;;;;;;;;;;;;;;-0.87;100.00;96340.28;5091715;28;20495;-74
2023/03/17 05:41:26;;;;;;;;;;;;;;;-0.89;100.00;96340.56;5085353;28;19932;-75
2023/03/17 05:43:52;;;;;;;;;;;;;;;-0.88;100.00;96336.81;5067335;28;19970;-75
2023/03/17 05:46:17;;;;;;;;;;;;;;;-0.91;100.00;96332.03;5078297;28;19920;-74
2023/03/17 05:48:42;;;;;;;;;;;;;;;-0.97;100.00;96330.53;5084384;28;19927;-75
2023/03/17 05:51:08;;;;;;;;;;;;;;;-0.93;100.00;96339.59;5059753;28;19916;-73
2023/03/17 05:53:35;;;;;;;;;;;;;;;-0.84;100.00;96345.06;5082995;28;19916;-73
2023/03/17 05:56:00;;;;;;;;;;;;;;;-0.88;100.00;96336.81;5061248;28;20007;-71
2023/03/17 05:58:25;;;;;;;;;;;;;;;-0.84;100.00;96332.41;5081657;28;20073;-72
2023/03/17 06:00:51;;;;;;;;;;;;;;;-0.79;100.00;96339.56;5085578;28;20377;-72
2023/03/17 06:03:16;;;;;;;;;;;;;;;-0.74;100.00;96331.38;5098173;28;19949;-73
2023/03/17 06:05:41;;;;;;;;;;;;;;;-0.78;100.00;96333.88;5102572;28;19916;-73
2023/03/17 06:08:07;;;;;;;;;;;;;;;-0.71;100.00;96338.84;5097523;28;19965;-73
2023/03/17 06:10:32;;;;;;;;;;;;;;;-0.55;100.00;96333.94;5102429;28;19922;-73
2023/03/17 06:12:58;;;;;;;;;;;;;;;-0.31;100.00;96336.31;5084246;28;19915;-73
2023/03/17 06:15:23;;;;;;;;;;;;;;;0.04;100.00;96338.47;5079391;28;19961;-73
2023/03/17 06:17:48;;;;;;;;;;;;;;;0.15;100.00;96342.50;5083179;28;19920;-73
2023/03/17 06:20:14;;;;;;;;;;;;;;;0.37;100.00;96344.38;5096659;28;20415;-74
2023/03/17 06:22:40;;;;;;;;;;;;;;;0.97;100.00;96342.22;5102538;28;19915;-71
2023/03/17 06:25:05;;;;;;;;;;;;;;;1.51;100.00;96345.50;5098336;28;20403;-73
2023/03/17 06:27:31;;;;;;;;;;;;;;;1.92;100.00;96341.53;5068090;28;20536;-73
2023/03/17 06:29:58;;;;;;;;;;;;;;;2.51;100.00;96353.69;5102135;28;19926;-73
2023/03/17 06:32:23;;;;;;;;;;;;;;;3.04;100.00;96352.34;5075383;28;19923;-71
2023/03/17 06:34:48;;;;;;;;;;;;;;;3.40;100.00;96342.91;5102201;28;19916;-72
2023/03/17 06:37:15;;;;;;;;;;;;;;;3.63;99.04;96346.09;5093275;28;19916;-72
2023/03/17 06:39:41;;;;;;;;;;;;;;;4.17;98.16;96337.97;5077748;28;19920;-73
2023/03/17 06:42:06;;;;;;;;;;;;;;;4.44;94.74;96345.88;5057868;28;19927;-72
2023/03/17 06:44:32;;;;;;;;;;;;;;;5.10;91.32;96343.00;5084591;28;20023;-73
2023/03/17 06:46:57;;;;;;;;;;;;;;;5.78;87.68;96348.91;5082991;28;19932;-71
2023/03/17 06:49:22;;;;;;;;;;;;;;;6.61;78.90;96354.72;5076968;28;20320;-73
2023/03/17 06:51:48;;;;;;;;;;;;;;;7.02;72.91;96358.88;5083682;28;19925;-73
2023/03/17 06:54:13;;;;;;;;;;;;;;;7.96;69.35;96358.25;5062515;28;20014;-73
2023/03/17 06:56:38;;;;;;;;;;;;;;;8.54;64.25;96357.50;5092219;28;19916;-73
2023/03/17 06:59:03;;;;;;;;;;;;;;;9.31;61.78;96355.66;5081815;28;20261;-72
2023/03/17 07:01:29;;;;;;;;;;;;;;;10.01;59.16;96351.59;5085631;28;19939;-73
2023/03/17 07:03:55;;;;;;;;;;;;;;;10.88;55.69;96354.16;5067815;28;20015;-73
2023/03/17 07:06:22;;;;;;;;;;;;;;;11.33;53.51;96351.41;5088211;28;20054;-73
2023/03/17 07:08:47;;;;;;;;;;;;;;;11.19;52.78;96351.31;5106001;28;20436;-71
2023/03/17 07:11:13;;;;;;;;;;;;;;;9.74;55.63;96353.56;5101770;28;20014;-73
2023/03/17 07:13:39;;;;;;;;;;;;;;;9.33;59.85;96348.69;5105947;28;20391;-73
2023/03/17 07:16:05;;;;;;;;;;;;;;;10.69;54.99;96352.41;5082625;28;19961;-72
2023/03/17 07:18:32;;;;;;;;;;;;;;;9.38;56.88;96351.13;5105344;28;20391;-72
2023/03/17 07:21:01;;;;;;;;;;;;;;;9.03;60.89;96354.06;5105691;28;19961;-72
2023/03/17 07:23:26;;;;;;;;;;;;;;;11.15;55.00;96358.72;5099830;28;19923;-72
2023/03/17 07:25:52;;;;;;;;;;;;;;;12.74;51.36;96363.91;5104989;28;20026;-73
2023/03/17 07:28:18;;;;;;;;;;;;;;;13.72;46.98;96369.13;5101557;28;19915;-73
2023/03/17 07:30:45;;;;;;;;;;;;;;;14.36;45.74;96361.09;5105929;28;19916;-72
2023/03/17 07:33:11;;;;;;;;;;;;;;;13.87;46.19;96371.84;5081828;28;19915;-72
2023/03/17 07:35:36;;;;;;;;;;;;;;;14.01;44.61;96379.28;5105363;28;20296;-73
2023/03/17 07:38:02;;;;;;;;;;;;;;;14.06;45.40;96379.69;5096471;28;20015;-72
2023/03/17 07:40:28;;;;;;;;;;;;;;;14.32;44.40;96375.66;5084057;28;19923;-72
2023/03/17 07:42:54;;;;;;;;;;;;;;;13.24;45.92;96390.72;5085658;28;19945;-70
2023/03/17 07:45:19;;;;;;;;;;;;;;;13.86;45.59;96382.06;5079527;28;19920;-72
2023/03/17 07:47:45;;;;;;;;;;;;;;;13.88;45.88;96378.91;5084091;28;20012;-72
2023/03/17 07:50:10;;;;;;;;;;;;;;;13.95;45.51;96376.94;5071483;28;20276;-72
2023/03/17 07:52:36;;;;;;;;;;;;;;;13.69;45.84;96367.16;5085001;28;19920;-72
2023/03/17 07:55:02;;;;;;;;;;;;;;;13.91;44.31;96364.34;5080426;28;19974;-70
2023/03/17 07:57:27;;;;;;;;;;;;;;;13.95;43.23;96359.63;5047457;28;20607;-72
2023/03/17 07:59:53;;;;;;;;;;;;;;;10.03;51.28;96354.75;5089946;28;19955;-72
2023/03/17 08:02:19;;;;;;;;;;;;;;;11.21;49.58;96355.22;5091549;28;19904;-72
2023/03/17 08:04:45;;;;;;;;;;;;;;;12.63;47.39;96356.44;5103906;28;19916;-71
2023/03/17 08:07:11;;;;;;;;;;;;;;;12.78;46.99;96357.28;5076206;28;20402;-73
2023/03/17 08:09:37;;;;;;;;;;;;;;;13.24;44.96;96352.22;5087171;28;20322;-73
2023/03/17 08:12:03;;;;;;;;;;;;;;;14.03;43.47;96349.41;5102605;28;20360;-73
2023/03/17 08:14:28;;;;;;;;;;;;;;;14.70;41.92;96344.81;5083538;28;20412;-73
2023/03/17 08:16:54;;;;;;;;;;;;;;;14.90;40.31;96348.63;5085677;28;20000;-73
2023/03/17 08:19:20;;;;;;;;;;;;;;;14.51;40.47;96355.13;5099440;28;19916;-73
2023/03/17 08:21:46;;;;;;;;;;;;;;;14.53;41.15;96360.19;5105187;28;20002;-71
2023/03/17 08:24:11;;;;;;;;;;;;;;;14.64;40.60;96368.44;5082152;28;20436;-72
2023/03/17 08:26:37;;;;;;;;;;;;;;;15.26;40.81;96359.41;5089204;28;19945;-72
2023/03/17 08:29:03;;;;;;;;;;;;;;;15.77;40.03;96351.53;5099867;28;19919;-72
2023/03/17 08:31:29;;;;;;;;;;;;;;;16.07;39.73;96340.97;5109398;28;19920;-72
2023/03/17 08:33:57;;;;;;;;;;;;;;;12.93;45.19;96338.06;5104431;28;19923;-72
2023/03/17 08:36:23;;;;;;;;;;;;;;;11.93;47.05;96344.78;5100018;28;19951;-72
2023/03/17 08:38:48;;;;;;;;;;;;;;;12.47;47.26;96338.72;5086234;28;19916;-72
2023/03/17 08:41:15;;;;;;;;;;;;;;;13.82;44.51;96342.75;5079198;28;19916;-73
2023/03/17 08:43:42;;;;;;;;;;;;;;;13.62;44.79;96350.66;5083445;28;20269;-73
2023/03/17 08:46:12;;;;;;;;;;;;;;;10.74;50.75;96337.59;5078449;28;19924;-73
2023/03/17 08:48:37;;;;;;;;;;;;;;;11.00;51.65;96336.66;5083248;28;19971;-72
2023/03/17 08:51:03;;;;;;;;;;;;;;;12.19;48.33;96335.50;5081613;28;19971;-72
2023/03/17 08:53:29;;;;;;;;;;;;;;;13.58;45.28;96345.16;5064319;28;19927;-72
2023/03/17 08:55:55;;;;;;;;;;;;;;;14.14;44.14;96337.16;5084451;28;19916;-72
2023/03/17 08:58:21;;;;;;;;;;;;;;;13.37;44.41;96332.19;5060470;28;22127;-72
2023/03/17 09:00:47;;;;;;;;;;;;;;;12.58;45.52;96339.53;5083596;28;20428;-72
2023/03/17 09:03:13;;;;;;;;;;;;;;;14.13;42.99;96334.78;5078809;28;19978;-72
2023/03/17 09:05:40;;;;;;;;;;;;;;;14.30;41.79;96330.41;5069030;28;20339;-73
2023/03/17 09:08:06;;;;;;;;;;;;;;;15.53;38.34;96327.66;5100782;28;19915;-71
2023/03/17 09:10:32;;;;;;;;;;;;;;;12.59;43.71;96336.41;5103677;28;19919;-73
2023/03/17 09:13:02;;;;;;;;;;;;;;;14.64;38.23;96333.44;5104660;28;19916;-73
2023/03/17 09:15:28;;;;;;;;;;;;;;;14.77;37.58;96328.22;5100342;28;19951;-73
2023/03/17 09:17:53;;;;;;;;;;;;;;;14.85;38.10;96323.44;5088835;28;20279;-73
2023/03/17 09:20:19;;;;;;;;;;;;;;;14.26;37.98;96326.88;5100238;28;19958;-72
2023/03/17 09:22:46;;;;;;;;;;;;;;;10.82;45.74;96319.25;5109395;28;19919;-72
2023/03/17 09:25:12;;;;;;;;;;;;;;;11.21;46.43;96316.84;5098246;28;19923;-73
2023/03/17 09:27:37;;;;;;;;;;;;;;;10.10;47.68;96311.06;5103501;28;19919;-73
2023/03/17 09:30:03;;;;;;;;;;;;;;;10.38;48.45;96317.25;5098672;28;19923;-73
2023/03/17 09:32:28;;;;;;;;;;;;;;;11.87;45.94;96310.63;5103169;28;19915;-73
2023/03/17 09:34:54;;;;;;;;;;;;;;;13.45;42.36;96304.66;5103720;28;19915;-72
2023/03/17 09:37:19;;;;;;;;;;;;;;;14.57;40.39;96302.31;5105808;28;19983;-72
2023/03/17 09:39:45;;;;;;;;;;;;;;;14.83;39.35;96304.53;5084479;28;19916;-73
2023/03/17 09:42:32;;;;;;;;;;;;;;;15.36;37.55;96304.53;5057336;28;19966;-73
2023/03/17 09:45:16;;;;;;;;;;;;;;;15.84;36.68;96306.47;5062330;28;20018;-73
2023/03/17 09:47:50;;;;;;;;;;;;;;;16.09;35.90;96308.97;5069256;28;20012;-73
2023/03/17 09:50:38;;;;;;;;;;;;;;;15.82;35.62;96317.94;5078291;28;19920;-73
2023/03/17 09:53:04;;;;;;;;;;;;;;;15.77;36.57;96314.84;5081887;28;20288;-71
2023/03/17 09:55:31;;;;;;;;;;;;;;;16.23;37.07;96316.31;5064344;28;19923;-72
2023/03/17 09:57:57;;;;;;;;;;;;;;;16.25;39.04;96306.38;5081691;28;20338;-72
2023/03/17 10:00:26;;;;;;;;;;;;;;;16.30;39.87;96307.94;5078020;28;19932;-72
2023/03/17 10:02:52;;;;;;;;;;;;;;;15.67;41.14;96299.94;5081881;28;19955;-72
2023/03/17 10:05:20;;;;;;;;;;;;;;;15.42;42.86;96300.16;5058701;28;19971;-71
2023/03/17 10:08:03;;;;;;;;;;;;;;;15.17;43.83;96289.34;5081456;28;19920;-71
2023/03/17 10:10:41;;;;;;;;;;;;;;;16.28;42.63;96299.28;5081883;28;19969;-72
2023/03/17 10:13:18;;;;;;;;;;;;;;;15.99;43.37;96290.53;5077417;28;19920;-72
2023/03/17 10:15:43;;;;;;;;;;;;;;;16.08;42.91;96290.84;5063731;28;20427;-72
2023/03/17 10:18:11;;;;;;;;;;;;;;;15.85;43.86;96294.25;5076945;28;19920;-72
2023/03/17 10:20:42;;;;;;;;;;;;;;;14.89;44.99;96283.66;5064824;28;20388;-71
2023/03/17 10:23:11;;;;;;;;;;;;;;;14.91;45.65;96286.00;5063706;28;19970;-71
2023/03/17 10:25:37;;;;;;;;;;;;;;;15.31;42.74;96289.22;5080650;28;19919;-72
2023/03/17 10:28:17;;;;;;;;;;;;;;;14.48;47.19;96286.25;5080629;28;19916;-72
2023/03/17 10:30:42;;;;;;;;;;;;;;;14.83;46.04;96290.00;5081961;28;19916;-72
2023/03/17 10:33:08;;;;;;;;;;;;;;;15.52;44.07;96290.19;5077023;28;19993;-72
2023/03/17 10:35:35;;;;;;;;;;;;;;;14.85;44.92;96279.34;5064101;28;19920;-72
2023/03/17 10:38:12;;;;;;;;;;;;;;;14.39;44.90;96269.38;5083796;28;20007;-72
2023/03/17 10:40:37;;;;;;;;;;;;;;;14.88;45.43;96273.03;5092423;28;19916;-71
2023/03/17 10:43:06;;;;;;;;;;;;;;;15.23;43.64;96276.66;5077514;28;19920;-70
2023/03/17 10:45:33;;;;;;;;;;;;;;;15.27;42.28;96272.69;5080534;28;19916;-72
2023/03/17 10:48:00;;;;;;;;;;;;;;;15.09;43.05;96261.81;5080573;28;19931;-73
2023/03/17 10:50:45;;;;;;;;;;;;;;;15.92;40.06;96261.03;5076391;28;19920;-72
2023/03/17 10:53:31;;;;;;;;;;;;;;;16.53;39.23;96263.00;5058078;28;19923;-72
2023/03/17 10:55:59;;;;;;;;;;;;;;;16.54;38.40;96264.56;5080315;28;20414;-72
2023/03/17 10:58:27;;;;;;;;;;;;;;;15.26;40.17;96260.09;5076290;28;19931;-72
2023/03/17 11:00:55;;;;;;;;;;;;;;;16.47;39.68;96261.13;5082086;28;20149;-72
2023/03/17 11:03:41;;;;;;;;;;;;;;;16.94;38.73;96255.72;5075577;28;19920;-72
2023/03/17 11:06:11;;;;;;;;;;;;;;;17.09;38.41;96251.53;5074576;28;19924;-72
2023/03/17 11:08:41;;;;;;;;;;;;;;;17.14;38.16;96247.47;5064007;28;19920;-72
2023/03/17 11:11:09;;;;;;;;;;;;;;;17.32;38.03;96241.63;5076507;28;19923;-72
2023/03/17 11:13:35;;;;;;;;;;;;;;;17.18;37.67;96243.47;5080561;28;19966;-72
2023/03/17 11:16:09;;;;;;;;;;;;;;;16.96;37.62;96236.69;5080534;28;20024;-72
2023/03/17 11:18:36;;;;;;;;;;;;;;;16.54;38.25;96244.44;5062105;28;19916;-72
2023/03/17 11:21:06;;;;;;;;;;;;;;;16.82;38.16;96254.28;5080876;28;19963;-72
2023/03/17 11:23:31;;;;;;;;;;;;;;;16.91;38.46;96243.50;5081153;28;19980;-72
2023/03/17 11:26:13;;;;;;;;;;;;;;;16.77;38.36;96241.72;5086086;28;20683;-72
2023/03/17 11:28:42;;;;;;;;;;;;;;;17.45;38.75;96242.59;5082688;28;20385;-72
2023/03/17 11:31:14;;;;;;;;;;;;;;;16.59;41.79;96233.69;5076255;28;19916;-72
2023/03/17 11:33:48;;;;;;;;;;;;;;;16.42;42.51;96220.91;5081716;28;19923;-71
2023/03/17 11:36:19;;;;;;;;;;;;;;;16.09;42.94;96225.31;5076617;28;20067;-72
2023/03/17 11:38:45;;;;;;;;;;;;;;;15.84;43.39;96226.41;5084161;28;19923;-72
2023/03/17 11:41:21;;;;;;;;;;;;;;;15.84;44.20;96218.13;5079434;28;19916;-71
2023/03/17 11:43:55;;;;;;;;;;;;;;;15.68;43.84;96207.63;5074988;28;20019;-72
2023/03/17 11:46:27;;;;;;;;;;;;;;;15.88;43.76;96202.28;5059644;28;19920;-72
2023/03/17 11:48:52;;;;;;;;;;;;;;;16.08;42.63;96198.88;5066182;28;20641;-72
2023/03/17 11:51:17;;;;;;;;;;;;;;;15.71;42.99;96200.50;5066723;28;19920;-72
2023/03/17 11:53:51;;;;;;;;;;;;;;;16.09;42.41;96195.69;5086080;28;19927;-72
2023/03/17 11:56:22;;;;;;;;;;;;;;;16.24;41.61;96196.28;5081252;28;20002;-73
2023/03/17 11:58:59;;;;;;;;;;;;;;;15.51;43.13;96195.59;5066123;28;19943;-72
2023/03/17 12:01:27;;;;;;;;;;;;;;;15.81;44.16;96188.56;5079381;28;20010;-73
2023/03/17 12:03:55;;;;;;;;;;;;;;;15.56;45.70;96192.38;5085077;28;19923;-72
2023/03/17 12:06:30;;;;;;;;;;;;;;;15.48;45.40;96201.94;5090977;28;19919;-72
2023/03/17 12:08:58;;;;;;;;;;;;;;;15.19;45.25;96193.94;5084944;28;20285;-72
2023/03/17 12:11:27;;;;;;;;;;;;;;;15.26;45.28;96193.09;5079907;28;20582;-72
2023/03/17 12:13:57;;;;;;;;;;;;;;;14.90;46.90;96185.94;5081734;28;20285;-71
2023/03/17 12:16:29;;;;;;;;;;;;;;;14.65;46.84;96188.13;5077975;28;19931;-72
2023/03/17 12:19:01;;;;;;;;;;;;;;;14.58;46.88;96188.97;5084944;28;19928;-71
2023/03/17 12:21:31;;;;;;;;;;;;;;;14.48;47.21;96179.56;5079088;28;19916;-72
2023/03/17 12:24:07;;;;;;;;;;;;;;;14.67;46.28;96186.53;5084065;28;19920;-72
2023/03/17 12:26:36;;;;;;;;;;;;;;;14.72;46.12;96185.31;5082742;28;20356;-71
2023/03/17 12:29:11;;;;;;;;;;;;;;;14.80;45.13;96167.53;5083597;28;19923;-72
2023/03/17 12:31:40;;;;;;;;;;;;;;;14.80;45.53;96163.97;5093371;28;20299;-72
2023/03/17 12:34:17;;;;;;;;;;;;;;;14.92;45.06;96163.47;5063704;28;19920;-72
2023/03/17 12:36:43;;;;;;;;;;;;;;;14.81;45.65;96157.28;5084612;28;19922;-72
2023/03/17 12:39:12;;;;;;;;;;;;;;;14.94;45.72;96158.34;5074695;28;20292;-72
2023/03/17 12:41:55;;;;;;;;;;;;;;;14.52;46.42;96151.97;5083995;28;19959;-72
2023/03/17 12:44:31;;;;;;;;;;;;;;;14.59;45.86;96162.97;5060388;28;19947;-72
2023/03/17 12:47:06;;;;;;;;;;;;;;;14.46;45.22;96159.91;5082526;28;20347;-72